Time;durP1;ratioP1;P1;durP2;ratioP2;P2;SDS_P1;SDS_P2;PMS_P1;PMS_P2;Temp;Humidity;BMP_temperature;BMP_pressure;BME280_temperature;BME280_humidity;BME280_pressure;Samples;Min_cycle;Max_cycle;Signal;HPM_P1;HPM_P2
2023/12/01 00:01:12;;;;;;;32.30;12.75;;;;;;;10.52;46.14;100061.16;5090106;28;20422;-60
2023/12/01 00:03:38;;;;;;;34.03;12.23;;;;;;;10.50;46.67;100068.47;5087383;28;20031;-61
2023/12/01 00:06:04;;;;;;;34.67;12.18;;;;;;;10.51;46.33;100071.03;5085778;28;20036;-59
2023/12/01 00:08:29;;;;;;;36.80;12.15;;;;;;;10.53;46.37;100078.91;5087652;28;20407;-58
2023/12/01 00:10:55;;;;;;;33.78;12.05;;;;;;;10.51;45.97;100083.56;5113826;28;20521;-59
2023/12/01 00:13:20;;;;;;;30.88;11.88;;;;;;;10.48;45.53;100084.69;5115176;28;20028;-59
2023/12/01 00:15:46;;;;;;;29.55;11.88;;;;;;;10.49;46.04;100088.22;5072151;28;20115;-58
2023/12/01 00:18:11;;;;;;;29.42;11.68;;;;;;;10.47;46.09;100087.50;5085258;28;20040;-59
2023/12/01 00:20:36;;;;;;;32.35;10.60;;;;;;;10.45;46.53;100092.19;5076821;28;20123;-59
2023/12/01 00:23:02;;;;;;;28.02;11.27;;;;;;;10.46;45.97;100092.03;5077039;28;20028;-59
2023/12/01 00:25:27;;;;;;;29.00;10.65;;;;;;;10.44;45.86;100093.19;5094846;28;20042;-59
2023/12/01 00:27:52;;;;;;;32.10;12.73;;;;;;;10.46;45.88;100115.28;5095042;28;20047;-58
2023/12/01 00:30:18;;;;;;;35.10;13.60;;;;;;;10.46;46.34;100109.94;5060454;28;20039;-58
2023/12/01 00:32:44;;;;;;;41.63;13.95;;;;;;;10.45;46.22;100108.25;5077241;28;20043;-58
2023/12/01 00:35:09;;;;;;;39.83;11.93;;;;;;;10.43;45.96;100099.53;5075737;28;20047;-58
2023/12/01 00:37:34;;;;;;;36.42;14.00;;;;;;;10.46;45.87;100104.59;5076575;28;20123;-58
2023/12/01 00:40:00;;;;;;;36.45;13.63;;;;;;;10.43;46.01;100095.00;5094628;28;20427;-58
2023/12/01 00:42:25;;;;;;;37.55;14.73;;;;;;;10.45;46.04;100113.59;5076197;28;20032;-58
2023/12/01 00:44:51;;;;;;;39.72;13.52;;;;;;;10.45;46.03;100110.91;5094609;28;20484;-58
2023/12/01 00:47:17;;;;;;;36.47;13.50;;;;;;;10.41;45.87;100106.88;5076288;28;20032;-58
2023/12/01 00:49:42;;;;;;;38.10;13.32;;;;;;;10.43;46.39;100113.75;5094456;28;20039;-59
2023/12/01 00:52:07;;;;;;;40.58;12.65;;;;;;;10.39;46.40;100106.13;5059549;28;20039;-58
2023/12/01 00:54:33;;;;;;;33.08;12.43;;;;;;;10.37;46.44;100110.81;5094228;28;20046;-58
2023/12/01 00:56:58;;;;;;;35.05;13.75;;;;;;;10.39;46.06;100123.06;5094537;28;20035;-60
2023/12/01 00:59:24;;;;;;;38.28;13.70;;;;;;;10.39;46.16;100119.53;5059452;28;20186;-60
2023/12/01 01:01:50;;;;;;;42.30;14.65;;;;;;;10.37;45.70;100122.38;5059753;28;20598;-60
2023/12/01 01:04:15;;;;;;;36.88;13.45;;;;;;;10.35;45.49;100123.50;5094114;28;20047;-60
2023/12/01 01:06:40;;;;;;;36.30;11.75;;;;;;;10.32;45.65;100115.75;5076111;28;20036;-60
2023/12/01 01:09:06;;;;;;;42.30;12.98;;;;;;;10.29;45.51;100124.06;5093862;28;20056;-60
2023/12/01 01:11:32;;;;;;;34.50;13.23;;;;;;;10.27;45.89;100121.53;5094082;28;20385;-60
2023/12/01 01:13:59;;;;;;;42.15;14.52;;;;;;;10.28;46.17;100122.38;5059364;28;20036;-60
2023/12/01 01:16:24;;;;;;;31.52;12.18;;;;;;;10.26;45.44;100127.03;5094155;28;20100;-60
2023/12/01 01:18:50;;;;;;;47.90;14.85;;;;;;;10.26;45.96;100129.72;5075948;28;20040;-60
2023/12/01 01:21:16;;;;;;;37.17;12.60;;;;;;;10.26;46.20;100124.34;5093879;28;20403;-60
2023/12/01 01:23:41;;;;;;;36.95;13.00;;;;;;;10.25;45.97;100128.00;5094055;28;20032;-60
2023/12/01 01:26:07;;;;;;;35.92;14.27;;;;;;;10.21;45.95;100115.94;5076029;28;20444;-60
2023/12/01 01:28:32;;;;;;;35.38;12.60;;;;;;;10.20;46.34;100124.94;5075631;28;20115;-60
2023/12/01 01:30:58;;;;;;;38.30;15.60;;;;;;;10.13;46.11;100113.97;5059015;28;20058;-60
2023/12/01 01:33:23;;;;;;;39.58;14.68;;;;;;;10.14;45.93;100125.50;5093818;28;20042;-60
2023/12/01 01:35:48;;;;;;;34.58;11.95;;;;;;;10.13;45.96;100126.50;5059111;28;20032;-60
2023/12/01 01:38:14;;;;;;;40.13;15.05;;;;;;;10.10;45.52;100129.44;5058877;28;20121;-60
2023/12/01 01:40:39;;;;;;;37.42;12.88;;;;;;;10.09;46.76;100128.59;5075870;28;20056;-60
2023/12/01 01:43:04;;;;;;;34.67;13.07;;;;;;;10.12;45.47;100135.47;5093491;28;20495;-60
2023/12/01 01:45:30;;;;;;;40.42;14.50;;;;;;;10.10;46.27;100134.78;5093519;28;20036;-60
2023/12/01 01:47:55;;;;;;;44.65;14.43;;;;;;;10.08;45.95;100137.59;5075278;28;20032;-60
2023/12/01 01:50:22;;;;;;;38.90;14.63;;;;;;;10.07;46.03;100140.41;5092515;28;20090;-60
2023/12/01 01:52:48;;;;;;;45.75;14.95;;;;;;;10.09;45.97;100143.78;5074667;28;20036;-60
2023/12/01 01:55:14;;;;;;;45.25;14.23;;;;;;;10.08;45.80;100148.28;5075412;28;20040;-60
2023/12/01 01:57:44;;;;;;;39.75;14.13;;;;;;;10.05;45.45;100142.41;5075279;28;20377;-60
2023/12/01 02:00:10;;;;;;;39.83;14.77;;;;;;;10.04;45.31;100146.06;5066279;28;20055;-60
2023/12/01 02:02:35;;;;;;;34.45;12.63;;;;;;;10.02;45.72;100148.03;5055039;28;20036;-60
2023/12/01 02:05:01;;;;;;;32.53;11.50;;;;;;;10.03;45.81;100149.72;5054976;28;20086;-60
2023/12/01 02:07:27;;;;;;;38.33;14.00;;;;;;;9.97;46.58;100147.63;5038492;28;20408;-58
2023/12/01 02:09:54;;;;;;;45.58;14.15;;;;;;;9.97;45.86;100155.66;5054989;28;20115;-58
2023/12/01 02:12:19;;;;;;;33.85;13.25;;;;;;;9.99;46.01;100153.66;5055232;28;20032;-58
2023/12/01 02:14:45;;;;;;;42.45;14.23;;;;;;;9.99;45.74;100153.66;5038369;28;20043;-58
2023/12/01 02:17:11;;;;;;;42.30;16.13;;;;;;;9.97;45.90;100144.94;5038294;28;20025;-59
2023/12/01 02:19:37;;;;;;;46.42;14.43;;;;;;;9.97;45.79;100144.94;5072753;28;20040;-58
2023/12/01 02:22:02;;;;;;;45.25;13.43;;;;;;;9.98;45.48;100151.97;5054968;28;20032;-59
2023/12/01 02:24:28;;;;;;;38.92;13.73;;;;;;;9.99;45.72;100153.66;5038002;28;20033;-58
2023/12/01 02:26:53;;;;;;;41.65;15.30;;;;;;;9.97;46.23;100150.31;5072652;28;20559;-58
2023/12/01 02:29:19;;;;;;;38.47;13.90;;;;;;;9.93;46.06;100145.22;5054747;28;20139;-58
2023/12/01 02:31:44;;;;;;;40.25;14.70;;;;;;;9.89;45.70;100149.16;5054751;28;20511;-59
2023/12/01 02:34:09;;;;;;;34.05;12.85;;;;;;;9.91;45.94;100152.53;5072593;28;20044;-58
2023/12/01 02:36:35;;;;;;;43.28;12.75;;;;;;;9.89;45.80;100148.31;5072708;28;20412;-59
2023/12/01 02:39:00;;;;;;;52.20;15.40;;;;;;;9.86;45.94;100146.78;5072188;28;20032;-58
2023/12/01 02:41:26;;;;;;;41.45;13.88;;;;;;;9.85;45.40;100144.25;5054687;28;20032;-58
2023/12/01 02:43:53;;;;;;;40.10;14.70;;;;;;;9.84;45.57;100148.75;5072560;28;20384;-59
2023/12/01 02:46:22;;;;;;;38.25;13.50;;;;;;;9.89;45.32;100159.88;5054779;28;20040;-59
2023/12/01 02:48:48;;;;;;;41.00;12.88;;;;;;;9.82;45.48;100145.38;5072431;28;20025;-58
2023/12/01 02:51:13;;;;;;;38.38;13.02;;;;;;;9.85;45.52;100150.41;5072586;28;20565;-58
2023/12/01 02:53:38;;;;;;;36.15;13.23;;;;;;;9.83;46.06;100149.72;5071221;28;20059;-59
2023/12/01 02:56:04;;;;;;;43.53;14.90;;;;;;;9.81;45.43;100149.03;5054694;28;20040;-58
2023/12/01 02:58:29;;;;;;;40.85;12.32;;;;;;;9.82;45.58;100148.06;5072453;28;20411;-58
2023/12/01 03:00:55;;;;;;;41.60;14.15;;;;;;;9.83;45.66;100151.56;5084957;28;20052;-58
2023/12/01 03:03:20;;;;;;;38.88;13.88;;;;;;;9.79;46.14;100156.34;5112689;28;20406;-58
2023/12/01 03:05:45;;;;;;;43.08;13.35;;;;;;;9.79;45.66;100161.72;5081627;28;20054;-58
2023/12/01 03:08:11;;;;;;;35.03;12.25;;;;;;;9.77;45.60;100162.84;5116953;28;20032;-58
2023/12/01 03:10:37;;;;;;;39.83;13.45;;;;;;;9.74;45.68;100157.75;5081750;28;20032;-58
2023/12/01 03:13:02;;;;;;;44.50;14.10;;;;;;;9.74;45.16;100171.13;5081619;28;20039;-59
2023/12/01 03:15:29;;;;;;;46.17;14.25;;;;;;;9.72;45.70;100149.88;5116855;28;20024;-60
2023/12/01 03:17:55;;;;;;;46.78;15.30;;;;;;;9.71;45.85;100150.88;5098504;28;20063;-60
2023/12/01 03:20:20;;;;;;;42.63;14.10;;;;;;;9.72;45.99;100151.69;5098717;28;20062;-60
2023/12/01 03:22:46;;;;;;;38.97;14.38;;;;;;;9.72;45.62;100157.03;5116460;28;20028;-60
2023/12/01 03:25:12;;;;;;;39.25;13.00;;;;;;;9.69;45.35;100158.16;5116768;28;20491;-60
2023/12/01 03:27:41;;;;;;;53.22;15.20;;;;;;;9.71;45.90;100172.25;5116435;28;20066;-60
2023/12/01 03:30:13;;;;;;;41.17;14.32;;;;;;;9.69;45.58;100168.84;5098336;28;20043;-60
2023/12/01 03:32:46;;;;;;;38.67;14.52;;;;;;;9.68;45.58;100167.19;5098506;28;20028;-60
2023/12/01 03:35:13;;;;;;;36.38;12.82;;;;;;;9.68;45.82;100169.88;5078652;28;20049;-60
2023/12/01 03:37:38;;;;;;;39.10;12.43;;;;;;;9.61;45.70;100171.41;5098554;28;20026;-59
2023/12/01 03:40:08;;;;;;;41.40;12.13;;;;;;;9.57;45.73;100174.50;5098368;28;20390;-60
2023/12/01 03:42:35;;;;;;;43.75;11.55;;;;;;;9.54;46.29;100169.41;5116775;28;20030;-60
2023/12/01 03:45:01;;;;;;;32.47;12.43;;;;;;;9.51;46.05;100165.19;5081829;28;20030;-60
2023/12/01 03:47:26;;;;;;;42.88;11.48;;;;;;;9.51;45.27;100175.91;5098062;28;20024;-61
2023/12/01 03:49:52;;;;;;;36.92;12.77;;;;;;;9.53;45.83;100179.25;5116100;28;20438;-60
2023/12/01 03:52:17;;;;;;;33.88;10.93;;;;;;;9.51;45.72;100189.25;5081217;28;20027;-60
2023/12/01 03:54:42;;;;;;;42.03;13.20;;;;;;;9.49;45.92;100190.38;5117167;28;20031;-60
2023/12/01 03:57:08;;;;;;;36.13;11.43;;;;;;;9.44;45.84;100185.44;5116813;28;20055;-61
2023/12/01 03:59:33;;;;;;;33.38;9.80;;;;;;;9.42;45.15;100191.91;5116690;28;20051;-60
2023/12/01 04:02:00;;;;;;;48.22;13.60;;;;;;;9.41;45.46;100188.38;5098032;28;20024;-60
2023/12/01 04:04:25;;;;;;;39.25;12.60;;;;;;;9.38;45.88;100185.97;5097560;28;20424;-60
2023/12/01 04:06:51;;;;;;;35.97;12.15;;;;;;;9.38;45.61;100195.84;5115980;28;20121;-60
2023/12/01 04:09:16;;;;;;;42.60;12.93;;;;;;;9.38;45.59;100196.66;5097781;28;20398;-59
2023/12/01 04:11:41;;;;;;;35.42;12.23;;;;;;;9.37;46.36;100195.00;5097474;28;20039;-60
2023/12/01 04:14:07;;;;;;;36.15;11.68;;;;;;;9.42;45.42;100202.59;5115728;28;20161;-60
2023/12/01 04:16:32;;;;;;;44.78;13.20;;;;;;;9.44;46.09;100211.31;5096219;28;20057;-60
2023/12/01 04:18:57;;;;;;;39.92;11.63;;;;;;;9.41;45.27;100206.28;5080609;28;20046;-60
2023/12/01 04:21:23;;;;;;;35.50;11.88;;;;;;;9.41;45.97;100207.09;5116426;28;20141;-60
2023/12/01 04:23:48;;;;;;;36.50;12.07;;;;;;;9.41;45.81;100211.63;5116017;28;20035;-60
2023/12/01 04:26:14;;;;;;;47.70;13.77;;;;;;;9.36;45.39;100210.19;5098459;28;20535;-60
2023/12/01 04:28:39;;;;;;;36.10;12.68;;;;;;;9.40;46.06;100225.94;5097984;28;20053;-60
2023/12/01 04:31:05;;;;;;;33.88;12.70;;;;;;;9.40;45.72;100218.78;5081030;28;20414;-64
2023/12/01 04:33:31;;;;;;;39.53;12.20;;;;;;;9.35;45.84;100213.81;5097282;28;20038;-60
2023/12/01 04:35:57;;;;;;;40.50;13.43;;;;;;;9.31;46.22;100223.13;5098948;28;20036;-61
2023/12/01 04:38:22;;;;;;;42.70;12.73;;;;;;;9.32;46.59;100218.63;5098012;28;20483;-60
2023/12/01 04:40:47;;;;;;;41.53;13.40;;;;;;;9.34;45.91;100220.16;5096929;28;20036;-60
2023/12/01 04:43:13;;;;;;;43.53;13.88;;;;;;;9.33;45.99;100220.28;5079957;28;20080;-60
2023/12/01 04:45:38;;;;;;;43.03;14.73;;;;;;;9.38;46.39;100220.72;5095622;28;20368;-60
2023/12/01 04:48:07;;;;;;;46.58;14.20;;;;;;;9.38;45.98;100229.59;5115078;28;20165;-59
2023/12/01 04:50:34;;;;;;;37.97;13.70;;;;;;;9.40;46.14;100232.16;5097199;28;20406;-60
2023/12/01 04:53:01;;;;;;;32.15;12.88;;;;;;;9.41;46.41;100231.13;5096723;28;20031;-59
2023/12/01 04:55:27;;;;;;;44.78;14.50;;;;;;;9.41;46.06;100233.81;5096498;28;20027;-60
2023/12/01 04:57:54;;;;;;;36.55;13.25;;;;;;;9.38;46.02;100239.44;5096551;28;20040;-60
2023/12/01 05:00:21;;;;;;;43.55;14.82;;;;;;;9.33;46.21;100226.50;5096491;28;20036;-60
2023/12/01 05:03:01;;;;;;;46.00;15.38;;;;;;;9.36;46.00;100242.25;5096438;28;20035;-60
2023/12/01 05:05:31;;;;;;;49.30;13.48;;;;;;;9.35;46.21;100243.22;5096498;28;20051;-60
2023/12/01 05:07:58;;;;;;;36.60;12.68;;;;;;;9.36;46.11;100246.75;5114780;28;20447;-60
2023/12/01 05:10:25;;;;;;;50.53;14.35;;;;;;;9.37;46.06;100251.13;5096485;28;20036;-60
2023/12/01 05:12:54;;;;;;;47.63;15.85;;;;;;;9.37;46.13;100243.09;5079562;28;20031;-60
2023/12/01 05:15:22;;;;;;;40.78;13.85;;;;;;;9.36;46.22;100242.25;5114351;28;20042;-60
2023/12/01 05:17:50;;;;;;;42.78;13.02;;;;;;;9.39;46.24;100251.81;5079366;28;20533;-59
2023/12/01 05:20:17;;;;;;;31.83;12.43;;;;;;;9.38;46.44;100256.31;5114288;28;20043;-60
2023/12/01 05:22:51;;;;;;;39.65;13.68;;;;;;;9.35;46.09;100261.94;5079041;28;20495;-60
2023/12/01 05:25:17;;;;;;;36.15;12.98;;;;;;;9.33;45.77;100257.69;5096269;28;20439;-60
2023/12/01 05:27:45;;;;;;;36.50;12.57;;;;;;;9.32;46.41;100254.19;5095607;28;20051;-60
2023/12/01 05:30:15;;;;;;;30.27;11.25;;;;;;;9.32;45.90;100266.72;5114107;28;20578;-59
2023/12/01 05:32:42;;;;;;;37.38;12.45;;;;;;;9.32;46.24;100261.38;5095984;28;20031;-59
2023/12/01 05:35:10;;;;;;;34.83;10.52;;;;;;;9.33;45.90;100263.06;5096180;28;20038;-58
2023/12/01 05:37:40;;;;;;;38.42;12.93;;;;;;;9.30;46.14;100263.31;5096450;28;20059;-58
2023/12/01 05:40:07;;;;;;;31.20;11.13;;;;;;;9.32;46.23;100261.38;5113940;28;20038;-58
2023/12/01 05:42:33;;;;;;;29.00;9.93;;;;;;;9.31;46.13;100271.22;5092310;28;20062;-58
2023/12/01 05:44:58;;;;;;;30.30;10.45;;;;;;;9.31;45.93;100273.03;5113818;28;20088;-58
2023/12/01 05:47:24;;;;;;;33.45;10.52;;;;;;;9.31;46.06;100278.38;5078738;28;20035;-58
2023/12/01 05:49:50;;;;;;;29.25;10.68;;;;;;;9.32;45.74;100277.41;5095513;28;20062;-58
2023/12/01 05:52:15;;;;;;;27.27;11.25;;;;;;;9.29;46.85;100269.66;5095593;28;20031;-58
2023/12/01 05:54:41;;;;;;;25.48;9.55;;;;;;;9.31;45.90;100279.22;5095505;28;20047;-61
2023/12/01 05:57:06;;;;;;;36.55;11.38;;;;;;;9.28;45.69;100281.31;5096105;28;20553;-58
2023/12/01 05:59:32;;;;;;;28.73;10.70;;;;;;;9.24;45.70;100279.91;5094502;28;20499;-58
2023/12/01 06:01:58;;;;;;;33.42;10.95;;;;;;;9.25;45.93;100286.94;5091201;28;20036;-58
2023/12/01 06:04:25;;;;;;;35.70;11.70;;;;;;;9.25;45.88;100292.28;5093401;28;20032;-58
2023/12/01 06:06:50;;;;;;;37.00;11.35;;;;;;;9.27;45.77;100292.97;5093211;28;20032;-58
2023/12/01 06:09:17;;;;;;;34.35;10.48;;;;;;;9.27;46.17;100290.31;5058407;28;20042;-59
2023/12/01 06:11:43;;;;;;;34.85;11.70;;;;;;;9.31;46.46;100294.41;5041713;28;20035;-58
2023/12/01 06:14:08;;;;;;;41.05;12.15;;;;;;;9.32;46.13;100293.44;5058470;28;20042;-59
2023/12/01 06:16:34;;;;;;;33.88;10.90;;;;;;;9.33;45.79;100284.44;5093052;28;20478;-58
2023/12/01 06:18:59;;;;;;;36.30;12.75;;;;;;;9.33;45.96;100279.09;5058019;28;20036;-58
2023/12/01 06:21:24;;;;;;;32.42;11.45;;;;;;;9.35;45.88;100285.16;5056899;28;20035;-58
2023/12/01 06:23:50;;;;;;;36.22;11.85;;;;;;;9.36;45.80;100281.50;5074710;28;20039;-58
2023/12/01 06:26:15;;;;;;;38.80;12.98;;;;;;;9.37;46.09;100285.88;5074570;28;20040;-58
2023/12/01 06:28:40;;;;;;;35.85;11.48;;;;;;;9.39;45.79;100289.25;5091803;28;20051;-59
2023/12/01 06:31:06;;;;;;;35.33;13.30;;;;;;;9.40;45.82;100292.75;5073857;28;20040;-58
2023/12/01 06:33:31;;;;;;;37.88;12.38;;;;;;;9.39;45.88;100294.59;5074783;28;20118;-60
2023/12/01 06:35:58;;;;;;;36.67;13.77;;;;;;;9.40;45.88;100290.94;5092760;28;20089;-58
2023/12/01 06:38:23;;;;;;;37.55;14.15;;;;;;;9.40;45.74;100301.63;5075057;28;20391;-58
2023/12/01 06:40:49;;;;;;;35.38;13.00;;;;;;;9.42;45.88;100305.00;5078884;28;20115;-60
2023/12/01 06:43:15;;;;;;;39.17;14.95;;;;;;;9.42;46.41;100307.69;5079038;28;20523;-58
2023/12/01 06:45:41;;;;;;;32.63;13.13;;;;;;;9.43;46.38;100305.88;5062289;28;20081;-60
2023/12/01 06:48:07;;;;;;;38.95;12.68;;;;;;;9.46;45.98;100295.75;5096843;28;20032;-61
2023/12/01 06:50:33;;;;;;;47.78;14.45;;;;;;;9.48;46.15;100304.47;5061090;28;20040;-60
2023/12/01 06:52:59;;;;;;;40.65;14.95;;;;;;;9.46;46.13;100295.75;5096979;28;20064;-60
2023/12/01 06:55:24;;;;;;;35.13;14.00;;;;;;;9.50;45.98;100307.84;5079214;28;20056;-59
2023/12/01 06:57:50;;;;;;;40.85;14.98;;;;;;;9.51;45.78;100311.38;5079049;28;20107;-58
2023/12/01 07:00:29;;;;;;;40.60;14.57;;;;;;;9.51;45.96;100314.91;5062266;28;20043;-59
2023/12/01 07:02:59;;;;;;;47.05;14.48;;;;;;;9.53;45.96;100317.44;5097380;28;20036;-58
2023/12/01 07:05:26;;;;;;;37.17;13.70;;;;;;;9.50;45.75;100313.19;5078021;28;20059;-59
2023/12/01 07:07:56;;;;;;;38.70;14.63;;;;;;;9.50;46.05;100315.03;5078181;28;20054;-60
2023/12/01 07:10:22;;;;;;;39.63;14.40;;;;;;;9.53;45.99;100322.78;5078190;28;20028;-58
2023/12/01 07:12:49;;;;;;;37.92;14.90;;;;;;;9.54;45.83;100329.81;5078397;28;20020;-59
2023/12/01 07:15:20;;;;;;;39.40;17.00;;;;;;;9.56;45.99;100328.72;5078270;28;20506;-58
2023/12/01 07:17:47;;;;;;;42.58;15.98;;;;;;;9.56;46.56;100330.53;5096443;28;20027;-60
2023/12/01 07:20:14;;;;;;;42.63;14.40;;;;;;;9.55;45.59;100327.00;5078089;28;20032;-61
2023/12/01 07:22:40;;;;;;;45.47;13.93;;;;;;;9.55;45.84;100321.66;5061377;28;20106;-61
2023/12/01 07:25:10;;;;;;;41.03;14.80;;;;;;;9.58;45.83;100321.38;5077992;28;20032;-58
2023/12/01 07:27:38;;;;;;;36.25;13.65;;;;;;;9.59;45.57;100323.09;5095990;28;20100;-58
2023/12/01 07:30:04;;;;;;;35.30;13.80;;;;;;;9.58;46.43;100325.88;5096211;28;20028;-59
2023/12/01 07:32:30;;;;;;;37.22;13.63;;;;;;;9.61;46.28;100325.63;5077992;28;20039;-59
2023/12/01 07:34:55;;;;;;;47.60;14.93;;;;;;;9.61;46.03;100321.13;5061462;28;20032;-58
2023/12/01 07:37:20;;;;;;;41.00;14.27;;;;;;;9.62;46.06;100328.16;5078068;28;20115;-59
2023/12/01 07:39:46;;;;;;;31.45;13.48;;;;;;;9.63;45.76;100332.50;5061083;28;20055;-58
2023/12/01 07:42:11;;;;;;;37.05;13.77;;;;;;;9.62;45.43;100328.16;5077679;28;20105;-59
2023/12/01 07:44:37;;;;;;;38.35;12.50;;;;;;;9.62;46.08;100325.50;5077827;28;20028;-59
2023/12/01 07:47:05;;;;;;;38.28;13.90;;;;;;;9.64;45.76;100326.19;5077588;28;20115;-58
2023/12/01 07:49:30;;;;;;;34.40;13.98;;;;;;;9.66;46.37;100332.25;5077112;28;20036;-59
2023/12/01 07:51:56;;;;;;;38.92;14.73;;;;;;;9.66;45.78;100334.91;5095568;28;20036;-59
2023/12/01 07:54:22;;;;;;;35.88;12.68;;;;;;;9.68;46.21;100334.81;5095970;28;20032;-58
2023/12/01 07:56:47;;;;;;;39.28;13.95;;;;;;;9.70;46.12;100331.00;5060958;28;20514;-58
2023/12/01 07:59:13;;;;;;;41.72;15.23;;;;;;;9.71;45.92;100335.38;5060547;28;20032;-59
2023/12/01 08:01:40;;;;;;;35.28;12.80;;;;;;;9.71;45.99;100338.06;5077829;28;20044;-59
2023/12/01 08:04:05;;;;;;;34.58;13.23;;;;;;;9.70;45.84;100336.34;5095316;28;20044;-58
2023/12/01 08:06:31;;;;;;;34.60;12.95;;;;;;;9.70;45.70;100344.38;5095147;28;20510;-59
2023/12/01 08:08:56;;;;;;;37.03;14.45;;;;;;;9.73;45.44;100348.59;5095491;28;20119;-58
2023/12/01 08:11:22;;;;;;;38.33;14.82;;;;;;;9.72;45.40;100350.44;5077323;28;20032;-58
2023/12/01 08:13:49;;;;;;;40.30;14.38;;;;;;;9.72;45.67;100342.41;5077619;28;20046;-59
2023/12/01 08:16:15;;;;;;;35.00;13.25;;;;;;;9.75;46.10;100355.50;5095003;28;20054;-58
2023/12/01 08:18:41;;;;;;;31.75;13.30;;;;;;;9.75;45.96;100355.50;5078423;28;20044;-58
2023/12/01 08:21:07;;;;;;;33.85;13.27;;;;;;;9.74;45.84;100348.47;5078763;28;20407;-58
2023/12/01 08:23:33;;;;;;;38.88;13.57;;;;;;;9.77;45.75;100352.72;5097874;28;20115;-59
2023/12/01 08:25:58;;;;;;;38.17;14.07;;;;;;;9.80;45.97;100353.28;5062086;28;20032;-64
2023/12/01 08:28:24;;;;;;;35.35;13.48;;;;;;;9.81;46.03;100351.44;5077658;28;20047;-58
2023/12/01 08:30:49;;;;;;;37.80;12.80;;;;;;;9.83;45.91;100357.50;5060505;28;20044;-58
2023/12/01 08:33:15;;;;;;;39.55;14.25;;;;;;;9.82;45.50;100356.69;5075907;28;20044;-58
2023/12/01 08:35:40;;;;;;;35.13;12.55;;;;;;;9.86;45.91;100349.19;5095012;28;20483;-59
2023/12/01 08:38:06;;;;;;;34.95;13.05;;;;;;;9.86;45.63;100358.09;5095196;28;20039;-59
2023/12/01 08:40:32;;;;;;;40.10;12.52;;;;;;;9.87;45.64;100365.13;5095183;28;20054;-59
2023/12/01 08:42:58;;;;;;;37.88;13.13;;;;;;;9.88;45.97;100366.81;5095840;28;20028;-59
2023/12/01 08:45:23;;;;;;;39.60;13.25;;;;;;;9.90;45.51;100364.88;5077420;28;20531;-58
2023/12/01 08:47:51;;;;;;;36.10;12.88;;;;;;;9.90;45.53;100370.22;5078817;28;20036;-61
2023/12/01 08:50:17;;;;;;;33.78;13.35;;;;;;;9.93;45.81;100364.59;5096624;28;20089;-59
2023/12/01 08:52:43;;;;;;;35.67;12.82;;;;;;;9.93;45.53;100367.28;5096874;28;20036;-59
2023/12/01 08:55:10;;;;;;;37.47;13.40;;;;;;;9.94;45.93;100368.94;5078620;28;20036;-58
2023/12/01 08:57:35;;;;;;;32.80;12.20;;;;;;;9.92;45.65;100367.38;5094525;28;20025;-59
2023/12/01 09:00:01;;;;;;;34.58;14.02;;;;;;;9.90;45.67;100375.56;5059792;28;20052;-64
2023/12/01 09:02:26;;;;;;;41.17;13.70;;;;;;;9.90;45.33;100372.03;5075678;28;20040;-64
2023/12/01 09:04:51;;;;;;;33.92;13.73;;;;;;;9.93;45.68;100385.16;5076481;28;20085;-59
2023/12/01 09:07:17;;;;;;;36.83;14.07;;;;;;;9.93;45.61;100377.97;5076176;28;20036;-59
2023/12/01 09:09:43;;;;;;;38.70;12.68;;;;;;;9.96;45.40;100379.53;5076091;28;20111;-59
2023/12/01 09:12:08;;;;;;;32.90;12.93;;;;;;;9.99;45.40;100389.09;5076005;28;20036;-59
2023/12/01 09:14:34;;;;;;;30.15;13.23;;;;;;;10.01;45.47;100393.34;5058358;28;20032;-59
2023/12/01 09:16:59;;;;;;;35.40;13.32;;;;;;;10.00;45.79;100380.06;5094308;28;20128;-59
2023/12/01 09:19:25;;;;;;;32.85;12.60;;;;;;;10.01;45.15;100392.47;5077240;28;20036;-59
2023/12/01 09:21:50;;;;;;;37.55;12.45;;;;;;;10.02;45.24;100381.66;5076983;28;20036;-59
2023/12/01 09:24:16;;;;;;;33.83;13.15;;;;;;;10.08;45.51;100388.28;5077496;28;20029;-58
2023/12/01 09:26:41;;;;;;;40.08;14.18;;;;;;;10.13;44.83;100386.06;5095358;28;20107;-59
2023/12/01 09:29:08;;;;;;;37.08;13.52;;;;;;;10.16;45.18;100383.94;5092484;28;20122;-59
2023/12/01 09:31:42;;;;;;;35.13;14.45;;;;;;;10.24;45.24;100394.00;5093802;28;20040;-60
2023/12/01 09:34:09;;;;;;;37.22;13.20;;;;;;;10.30;45.21;100388.91;5057737;28;20036;-58
2023/12/01 09:36:35;;;;;;;33.60;13.43;;;;;;;10.35;44.69;100392.03;5075974;28;20040;-59
2023/12/01 09:39:00;;;;;;;36.17;13.07;;;;;;;10.39;45.24;100395.28;5075689;28;20044;-58
2023/12/01 09:41:25;;;;;;;37.15;12.95;;;;;;;10.40;45.33;100400.50;5083108;28;20044;-58
2023/12/01 09:43:51;;;;;;;37.70;14.75;;;;;;;10.41;45.33;100396.00;5092885;28;20032;-59
2023/12/01 09:46:16;;;;;;;34.58;13.18;;;;;;;10.45;45.04;100402.75;5058572;28;20507;-58
2023/12/01 09:48:43;;;;;;;32.45;12.68;;;;;;;10.48;44.89;100397.13;5075557;28;20062;-58
2023/12/01 09:51:09;;;;;;;33.67;13.02;;;;;;;10.52;45.17;100403.91;5093484;28;20036;-59
2023/12/01 09:53:34;;;;;;;35.53;13.70;;;;;;;10.54;45.29;100396.56;5093457;28;20050;-59
2023/12/01 09:56:03;;;;;;;36.85;13.57;;;;;;;10.60;45.29;100406.72;5058338;28;20459;-59
2023/12/01 09:58:28;;;;;;;39.33;13.30;;;;;;;10.65;44.51;100399.09;5093199;28;20047;-59
2023/12/01 10:00:56;;;;;;;30.80;12.75;;;;;;;10.68;45.16;100404.19;5075042;28;20044;-59
2023/12/01 10:03:21;;;;;;;30.13;12.90;;;;;;;10.71;45.12;100403.06;5075524;28;20036;-59
2023/12/01 10:05:47;;;;;;;32.15;13.60;;;;;;;10.74;45.20;100402.78;5093263;28;20039;-58
2023/12/01 10:08:12;;;;;;;30.38;12.18;;;;;;;10.72;44.55;100402.91;5074862;28;20044;-59
2023/12/01 10:10:38;;;;;;;31.38;11.57;;;;;;;10.77;45.23;100402.50;5075171;28;20060;-59
2023/12/01 10:13:04;;;;;;;31.67;12.90;;;;;;;10.76;44.53;100407.00;5074568;28;20032;-59
2023/12/01 10:15:31;;;;;;;32.15;12.18;;;;;;;10.76;44.99;100407.00;5091668;28;20039;-59
2023/12/01 10:18:12;;;;;;;28.60;11.80;;;;;;;10.81;45.17;100399.38;5058370;28;20081;-59
2023/12/01 10:20:41;;;;;;;30.38;12.98;;;;;;;10.84;44.97;100398.25;5092890;28;20039;-59
2023/12/01 10:23:17;;;;;;;32.05;12.05;;;;;;;10.86;45.23;100407.84;5094065;28;20028;-59
2023/12/01 10:25:49;;;;;;;31.00;11.55;;;;;;;10.87;44.62;100397.97;5093121;28;20085;-59
2023/12/01 10:28:18;;;;;;;29.10;11.18;;;;;;;10.92;45.01;100403.75;5059112;28;20466;-59
2023/12/01 10:30:56;;;;;;;32.85;12.80;;;;;;;10.93;45.01;100403.63;5074910;28;20060;-59
2023/12/01 10:33:23;;;;;;;31.85;11.70;;;;;;;10.93;45.17;100402.78;5074284;28;20052;-59
2023/12/01 10:36:08;;;;;;;27.88;11.52;;;;;;;10.92;45.13;100401.94;5058587;28;20051;-58
2023/12/01 10:38:35;;;;;;;35.00;13.00;;;;;;;10.89;44.68;100399.53;5058577;28;20039;-59
2023/12/01 10:41:03;;;;;;;27.73;11.13;;;;;;;10.88;44.89;100399.69;5058198;28;20111;-59
2023/12/01 10:43:29;;;;;;;31.23;12.27;;;;;;;10.86;45.30;100397.13;5074958;28;20032;-59
2023/12/01 10:45:59;;;;;;;31.08;12.80;;;;;;;10.86;45.01;100391.78;5057909;28;20040;-59
2023/12/01 10:48:27;;;;;;;28.83;11.98;;;;;;;10.85;44.96;100395.44;5074575;28;20043;-59
2023/12/01 10:50:54;;;;;;;32.97;11.82;;;;;;;10.86;44.79;100394.44;5075175;28;20054;-59
2023/12/01 10:53:22;;;;;;;37.35;13.60;;;;;;;10.84;44.58;100392.91;5074710;28;20028;-59
2023/12/01 10:55:48;;;;;;;38.60;12.38;;;;;;;10.81;44.78;100387.81;5073547;28;20066;-59
2023/12/01 10:58:22;;;;;;;32.22;12.05;;;;;;;10.78;44.80;100383.59;5057873;28;20104;-59
2023/12/01 11:00:52;;;;;;;24.52;10.40;;;;;;;10.75;45.13;100394.59;5057672;28;20044;-58
2023/12/01 11:03:22;;;;;;;24.45;10.48;;;;;;;10.69;44.72;100384.44;5092671;28;20040;-59
2023/12/01 11:05:57;;;;;;;19.88;9.23;;;;;;;10.65;45.36;100388.41;5057999;28;20032;-59
2023/12/01 11:08:35;;;;;;;19.92;8.45;;;;;;;10.62;45.09;100377.09;5092734;28;20032;-59
2023/12/01 11:11:16;;;;;;;19.25;9.10;;;;;;;10.56;44.57;100378.53;5058461;28;20106;-59